Burlington Township, New Jersey
Current Conditions -  °F | °C
As of 11:54 AM on Thursday 30 Oct 2014 (Local Time) from KVAY Reporting Station
Clear Clear  
Wind Chill: 57°   Ceiling: Unl
Heat Index: 57°   Visibility: 10mi
Dew Point: 38°   Wind: 8mph
Humidity: 49%   Direction: 360°N
Pressure: 30.02"   Gusts: NA
Location:  40.0691°N, 74.8276°W
Report Text: KVAY 301554Z AUTO 36007KT 10SM CLR 14/03 A3002 RMK AO2 SLP164 T01390033
Loading
Personal Weather Stations






























Interactive Weather Map
Tropical Storm Tracking
New forecast layout! Learn more

10-Day Weather Forecast

Advertisements
Track Severe Weather on mobile